sensor_id;sensor_type;location;lat;lon;timestamp;P1;durP1;ratioP1;P2;durP2;ratioP2
32427;SDS011;18882;50.952;4.366;2022-10-31T00:00:19;6.20;;;2.75;;
32427;SDS011;18882;50.952;4.366;2022-10-31T00:02:45;5.47;;;3.00;;
32427;SDS011;18882;50.952;4.366;2022-10-31T00:05:11;6.03;;;3.42;;
32427;SDS011;18882;50.952;4.366;2022-10-31T00:07:36;5.03;;;2.80;;
32427;SDS011;18882;50.952;4.366;2022-10-31T00:10:02;4.13;;;2.78;;
32427;SDS011;18882;50.952;4.366;2022-10-31T00:12:28;5.53;;;2.65;;
32427;SDS011;18882;50.952;4.366;2022-10-31T00:14:53;10.10;;;2.58;;
32427;SDS011;18882;50.952;4.366;2022-10-31T00:17:19;7.15;;;2.88;;
32427;SDS011;18882;50.952;4.366;2022-10-31T00:19:45;4.95;;;2.72;;
32427;SDS011;18882;50.952;4.366;2022-10-31T00:22:10;5.60;;;2.88;;
32427;SDS011;18882;50.952;4.366;2022-10-31T00:24:36;4.20;;;2.40;;
32427;SDS011;18882;50.952;4.366;2022-10-31T00:27:01;6.20;;;3.03;;
32427;SDS011;18882;50.952;4.366;2022-10-31T00:29:27;5.20;;;3.22;;
32427;SDS011;18882;50.952;4.366;2022-10-31T00:31:53;4.40;;;2.80;;
32427;SDS011;18882;50.952;4.366;2022-10-31T00:34:18;5.07;;;2.67;;
32427;SDS011;18882;50.952;4.366;2022-10-31T00:36:44;3.83;;;2.42;;
32427;SDS011;18882;50.952;4.366;2022-10-31T00:39:09;5.15;;;3.05;;
32427;SDS011;18882;50.952;4.366;2022-10-31T00:41:35;3.70;;;2.67;;
32427;SDS011;18882;50.952;4.366;2022-10-31T00:44:01;6.18;;;2.65;;
32427;SDS011;18882;50.952;4.366;2022-10-31T00:46:26;5.20;;;2.65;;
32427;SDS011;18882;50.952;4.366;2022-10-31T00:48:52;4.63;;;2.92;;
32427;SDS011;18882;50.952;4.366;2022-10-31T00:51:17;6.15;;;3.33;;
32427;SDS011;18882;50.952;4.366;2022-10-31T00:53:43;4.70;;;2.75;;
32427;SDS011;18882;50.952;4.366;2022-10-31T00:56:09;5.30;;;2.90;;
32427;SDS011;18882;50.952;4.366;2022-10-31T00:58:35;7.72;;;3.30;;
32427;SDS011;18882;50.952;4.366;2022-10-31T01:01:00;5.32;;;2.53;;
32427;SDS011;18882;50.952;4.366;2022-10-31T01:03:27;5.30;;;3.05;;
32427;SDS011;18882;50.952;4.366;2022-10-31T01:05:59;6.13;;;3.55;;
32427;SDS011;18882;50.952;4.366;2022-10-31T01:08:36;4.93;;;2.67;;
32427;SDS011;18882;50.952;4.366;2022-10-31T01:11:04;4.30;;;2.80;;
32427;SDS011;18882;50.952;4.366;2022-10-31T01:13:41;5.00;;;2.55;;
32427;SDS011;18882;50.952;4.366;2022-10-31T01:16:08;8.15;;;3.38;;
32427;SDS011;18882;50.952;4.366;2022-10-31T01:18:36;4.88;;;2.85;;
32427;SDS011;18882;50.952;4.366;2022-10-31T01:23:33;5.60;;;3.35;;
32427;SDS011;18882;50.952;4.366;2022-10-31T01:26:06;4.30;;;2.90;;
32427;SDS011;18882;50.952;4.366;2022-10-31T01:28:37;4.03;;;2.78;;
32427;SDS011;18882;50.952;4.366;2022-10-31T01:31:08;3.67;;;2.55;;
32427;SDS011;18882;50.952;4.366;2022-10-31T01:33:34;12.07;;;3.70;;
32427;SDS011;18882;50.952;4.366;2022-10-31T01:36:01;4.05;;;2.53;;
32427;SDS011;18882;50.952;4.366;2022-10-31T01:38:36;7.72;;;3.00;;
32427;SDS011;18882;50.952;4.366;2022-10-31T01:41:01;4.25;;;2.58;;
32427;SDS011;18882;50.952;4.366;2022-10-31T01:43:47;5.70;;;2.72;;
32427;SDS011;18882;50.952;4.366;2022-10-31T01:46:16;4.28;;;2.47;;
32427;SDS011;18882;50.952;4.366;2022-10-31T01:48:46;4.82;;;2.47;;
32427;SDS011;18882;50.952;4.366;2022-10-31T01:51:13;8.13;;;3.10;;
32427;SDS011;18882;50.952;4.366;2022-10-31T01:53:40;4.75;;;3.03;;
32427;SDS011;18882;50.952;4.366;2022-10-31T01:56:08;4.03;;;2.70;;
32427;SDS011;18882;50.952;4.366;2022-10-31T01:58:34;5.78;;;2.67;;
32427;SDS011;18882;50.952;4.366;2022-10-31T02:01:00;6.93;;;2.60;;
32427;SDS011;18882;50.952;4.366;2022-10-31T02:03:27;7.90;;;2.90;;
32427;SDS011;18882;50.952;4.366;2022-10-31T02:05:54;4.85;;;2.88;;
32427;SDS011;18882;50.952;4.366;2022-10-31T02:08:23;2.63;;;2.42;;
32427;SDS011;18882;50.952;4.366;2022-10-31T02:10:55;3.92;;;2.22;;
32427;SDS011;18882;50.952;4.366;2022-10-31T02:13:22;4.47;;;2.58;;
32427;SDS011;18882;50.952;4.366;2022-10-31T02:15:49;6.78;;;2.83;;
32427;SDS011;18882;50.952;4.366;2022-10-31T02:18:18;5.45;;;2.80;;
32427;SDS011;18882;50.952;4.366;2022-10-31T02:20:54;7.38;;;2.60;;
32427;SDS011;18882;50.952;4.366;2022-10-31T02:23:32;5.03;;;2.50;;
32427;SDS011;18882;50.952;4.366;2022-10-31T02:26:12;5.35;;;2.75;;
32427;SDS011;18882;50.952;4.366;2022-10-31T02:29:00;4.93;;;2.80;;
32427;SDS011;18882;50.952;4.366;2022-10-31T02:34:36;7.93;;;3.60;;
32427;SDS011;18882;50.952;4.366;2022-10-31T02:37:07;6.32;;;2.88;;
32427;SDS011;18882;50.952;4.366;2022-10-31T02:39:59;6.95;;;2.90;;
32427;SDS011;18882;50.952;4.366;2022-10-31T02:45:21;5.53;;;2.38;;
32427;SDS011;18882;50.952;4.366;2022-10-31T02:47:55;3.28;;;2.22;;
32427;SDS011;18882;50.952;4.366;2022-10-31T02:50:28;7.40;;;2.90;;
32427;SDS011;18882;50.952;4.366;2022-10-31T02:52:57;4.57;;;2.42;;
32427;SDS011;18882;50.952;4.366;2022-10-31T02:57:53;6.88;;;3.08;;
32427;SDS011;18882;50.952;4.366;2022-10-31T03:00:26;6.47;;;2.85;;
32427;SDS011;18882;50.952;4.366;2022-10-31T03:08:24;6.18;;;2.95;;
32427;SDS011;18882;50.952;4.366;2022-10-31T03:11:13;4.55;;;2.60;;
32427;SDS011;18882;50.952;4.366;2022-10-31T03:13:50;4.57;;;3.22;;
32427;SDS011;18882;50.952;4.366;2022-10-31T03:19:04;6.45;;;2.47;;
32427;SDS011;18882;50.952;4.366;2022-10-31T03:24:06;6.38;;;2.15;;
32427;SDS011;18882;50.952;4.366;2022-10-31T03:26:35;4.85;;;1.88;;
32427;SDS011;18882;50.952;4.366;2022-10-31T03:29:05;4.82;;;2.20;;
32427;SDS011;18882;50.952;4.366;2022-10-31T03:31:33;4.20;;;2.63;;
32427;SDS011;18882;50.952;4.366;2022-10-31T03:34:04;4.70;;;2.22;;
32427;SDS011;18882;50.952;4.366;2022-10-31T03:36:32;5.93;;;1.85;;
32427;SDS011;18882;50.952;4.366;2022-10-31T03:39:02;3.17;;;1.90;;
32427;SDS011;18882;50.952;4.366;2022-10-31T03:41:32;2.50;;;2.28;;
32427;SDS011;18882;50.952;4.366;2022-10-31T03:44:04;4.75;;;2.33;;
32427;SDS011;18882;50.952;4.366;2022-10-31T03:46:34;4.32;;;2.42;;
32427;SDS011;18882;50.952;4.366;2022-10-31T03:49:00;3.35;;;2.25;;
32427;SDS011;18882;50.952;4.366;2022-10-31T03:51:36;2.53;;;1.80;;
32427;SDS011;18882;50.952;4.366;2022-10-31T03:54:21;4.32;;;2.03;;
32427;SDS011;18882;50.952;4.366;2022-10-31T03:57:12;3.88;;;1.92;;
32427;SDS011;18882;50.952;4.366;2022-10-31T04:00:00;4.72;;;2.10;;
32427;SDS011;18882;50.952;4.366;2022-10-31T04:02:32;4.25;;;2.40;;
32427;SDS011;18882;50.952;4.366;2022-10-31T04:05:00;10.30;;;2.47;;
32427;SDS011;18882;50.952;4.366;2022-10-31T04:07:27;5.47;;;2.50;;
32427;SDS011;18882;50.952;4.366;2022-10-31T04:10:00;4.13;;;2.40;;
32427;SDS011;18882;50.952;4.366;2022-10-31T04:12:27;3.67;;;2.47;;
32427;SDS011;18882;50.952;4.366;2022-10-31T04:14:55;4.53;;;2.30;;
32427;SDS011;18882;50.952;4.366;2022-10-31T04:17:22;3.15;;;2.05;;
32427;SDS011;18882;50.952;4.366;2022-10-31T04:19:55;7.82;;;1.83;;
32427;SDS011;18882;50.952;4.366;2022-10-31T04:22:23;3.75;;;2.38;;
32427;SDS011;18882;50.952;4.366;2022-10-31T04:24:49;8.68;;;2.70;;
32427;SDS011;18882;50.952;4.366;2022-10-31T04:27:14;7.40;;;3.17;;
32427;SDS011;18882;50.952;4.366;2022-10-31T04:29:40;3.42;;;1.60;;
32427;SDS011;18882;50.952;4.366;2022-10-31T04:32:06;4.07;;;2.50;;
32427;SDS011;18882;50.952;4.366;2022-10-31T04:34:31;6.40;;;2.95;;
32427;SDS011;18882;50.952;4.366;2022-10-31T04:36:57;4.60;;;2.42;;
32427;SDS011;18882;50.952;4.366;2022-10-31T04:39:22;4.68;;;2.38;;
32427;SDS011;18882;50.952;4.366;2022-10-31T04:41:48;5.00;;;2.13;;
32427;SDS011;18882;50.952;4.366;2022-10-31T04:44:14;6.30;;;2.88;;
32427;SDS011;18882;50.952;4.366;2022-10-31T04:46:40;3.58;;;2.17;;
32427;SDS011;18882;50.952;4.366;2022-10-31T04:49:06;6.20;;;2.63;;
32427;SDS011;18882;50.952;4.366;2022-10-31T04:51:31;4.07;;;2.17;;
32427;SDS011;18882;50.952;4.366;2022-10-31T04:53:57;7.32;;;2.58;;
32427;SDS011;18882;50.952;4.366;2022-10-31T04:56:23;4.18;;;2.65;;
32427;SDS011;18882;50.952;4.366;2022-10-31T04:58:48;5.18;;;2.35;;
32427;SDS011;18882;50.952;4.366;2022-10-31T05:01:14;5.28;;;2.95;;
32427;SDS011;18882;50.952;4.366;2022-10-31T05:03:39;4.60;;;2.72;;
32427;SDS011;18882;50.952;4.366;2022-10-31T05:06:05;5.18;;;2.53;;
32427;SDS011;18882;50.952;4.366;2022-10-31T05:08:31;3.28;;;1.92;;
32427;SDS011;18882;50.952;4.366;2022-10-31T05:11:01;3.85;;;2.45;;
32427;SDS011;18882;50.952;4.366;2022-10-31T05:13:27;5.05;;;2.55;;
32427;SDS011;18882;50.952;4.366;2022-10-31T05:15:53;6.63;;;2.70;;
32427;SDS011;18882;50.952;4.366;2022-10-31T05:18:19;9.57;;;2.92;;
32427;SDS011;18882;50.952;4.366;2022-10-31T05:20:44;5.03;;;3.00;;
32427;SDS011;18882;50.952;4.366;2022-10-31T05:23:10;3.60;;;2.22;;
32427;SDS011;18882;50.952;4.366;2022-10-31T05:25:36;7.70;;;3.30;;
32427;SDS011;18882;50.952;4.366;2022-10-31T05:28:01;4.47;;;2.63;;
32427;SDS011;18882;50.952;4.366;2022-10-31T05:30:28;5.78;;;2.95;;
32427;SDS011;18882;50.952;4.366;2022-10-31T05:32:55;5.78;;;2.97;;
32427;SDS011;18882;50.952;4.366;2022-10-31T05:35:23;10.10;;;2.97;;
32427;SDS011;18882;50.952;4.366;2022-10-31T05:37:53;8.85;;;3.58;;
32427;SDS011;18882;50.952;4.366;2022-10-31T05:40:19;7.03;;;3.03;;
32427;SDS011;18882;50.952;4.366;2022-10-31T05:42:46;8.52;;;3.88;;
32427;SDS011;18882;50.952;4.366;2022-10-31T05:45:15;7.68;;;3.45;;
32427;SDS011;18882;50.952;4.366;2022-10-31T05:47:42;5.07;;;3.28;;
32427;SDS011;18882;50.952;4.366;2022-10-31T05:50:14;6.88;;;3.30;;
32427;SDS011;18882;50.952;4.366;2022-10-31T05:52:40;6.20;;;3.65;;
32427;SDS011;18882;50.952;4.366;2022-10-31T05:55:06;6.47;;;3.20;;
32427;SDS011;18882;50.952;4.366;2022-10-31T05:57:32;7.25;;;3.63;;
32427;SDS011;18882;50.952;4.366;2022-10-31T05:59:58;9.25;;;3.47;;
32427;SDS011;18882;50.952;4.366;2022-10-31T06:02:24;9.93;;;3.40;;
32427;SDS011;18882;50.952;4.366;2022-10-31T06:04:50;7.32;;;3.65;;
32427;SDS011;18882;50.952;4.366;2022-10-31T06:07:15;7.57;;;3.88;;
32427;SDS011;18882;50.952;4.366;2022-10-31T06:09:41;7.40;;;3.50;;
32427;SDS011;18882;50.952;4.366;2022-10-31T06:12:07;8.43;;;3.53;;
32427;SDS011;18882;50.952;4.366;2022-10-31T06:14:32;9.18;;;3.80;;
32427;SDS011;18882;50.952;4.366;2022-10-31T06:16:58;8.48;;;3.35;;
32427;SDS011;18882;50.952;4.366;2022-10-31T06:19:23;7.00;;;3.50;;
32427;SDS011;18882;50.952;4.366;2022-10-31T06:21:49;5.82;;;3.00;;
32427;SDS011;18882;50.952;4.366;2022-10-31T06:24:15;7.57;;;3.30;;
32427;SDS011;18882;50.952;4.366;2022-10-31T06:26:41;7.13;;;3.65;;
32427;SDS011;18882;50.952;4.366;2022-10-31T06:29:06;12.27;;;3.65;;
32427;SDS011;18882;50.952;4.366;2022-10-31T06:31:32;5.93;;;3.22;;
32427;SDS011;18882;50.952;4.366;2022-10-31T06:33:58;5.88;;;3.83;;
32427;SDS011;18882;50.952;4.366;2022-10-31T06:36:23;11.45;;;3.83;;
32427;SDS011;18882;50.952;4.366;2022-10-31T06:38:49;9.25;;;3.28;;
32427;SDS011;18882;50.952;4.366;2022-10-31T06:41:14;6.75;;;3.53;;
32427;SDS011;18882;50.952;4.366;2022-10-31T06:43:40;8.35;;;3.50;;
32427;SDS011;18882;50.952;4.366;2022-10-31T06:46:06;9.32;;;3.80;;
32427;SDS011;18882;50.952;4.366;2022-10-31T06:48:31;6.10;;;3.38;;
32427;SDS011;18882;50.952;4.366;2022-10-31T06:50:58;5.47;;;3.47;;
32427;SDS011;18882;50.952;4.366;2022-10-31T06:53:24;5.45;;;3.05;;
32427;SDS011;18882;50.952;4.366;2022-10-31T06:55:50;5.95;;;3.42;;
32427;SDS011;18882;50.952;4.366;2022-10-31T06:58:16;6.05;;;3.60;;
32427;SDS011;18882;50.952;4.366;2022-10-31T07:00:42;7.55;;;4.00;;
32427;SDS011;18882;50.952;4.366;2022-10-31T07:03:11;8.10;;;3.90;;
32427;SDS011;18882;50.952;4.366;2022-10-31T07:05:38;8.52;;;3.80;;
32427;SDS011;18882;50.952;4.366;2022-10-31T07:08:05;5.25;;;3.22;;
32427;SDS011;18882;50.952;4.366;2022-10-31T07:10:34;11.73;;;3.88;;
32427;SDS011;18882;50.952;4.366;2022-10-31T07:13:01;7.15;;;3.80;;
32427;SDS011;18882;50.952;4.366;2022-10-31T07:15:28;7.32;;;3.83;;
32427;SDS011;18882;50.952;4.366;2022-10-31T07:18:04;10.18;;;3.78;;
32427;SDS011;18882;50.952;4.366;2022-10-31T07:20:31;10.48;;;3.60;;
32427;SDS011;18882;50.952;4.366;2022-10-31T07:22:57;13.27;;;4.95;;
32427;SDS011;18882;50.952;4.366;2022-10-31T07:25:23;10.95;;;4.80;;
32427;SDS011;18882;50.952;4.366;2022-10-31T07:27:49;12.27;;;4.45;;
32427;SDS011;18882;50.952;4.366;2022-10-31T07:30:15;8.20;;;4.85;;
32427;SDS011;18882;50.952;4.366;2022-10-31T07:32:44;9.10;;;4.40;;
32427;SDS011;18882;50.952;4.366;2022-10-31T07:35:14;12.68;;;4.72;;
32427;SDS011;18882;50.952;4.366;2022-10-31T07:37:41;9.70;;;4.72;;
32427;SDS011;18882;50.952;4.366;2022-10-31T07:40:08;11.32;;;4.25;;
32427;SDS011;18882;50.952;4.366;2022-10-31T07:42:34;11.50;;;4.28;;
32427;SDS011;18882;50.952;4.366;2022-10-31T07:45:07;9.40;;;3.83;;
32427;SDS011;18882;50.952;4.366;2022-10-31T07:47:42;7.10;;;4.13;;
32427;SDS011;18882;50.952;4.366;2022-10-31T07:50:11;12.50;;;4.97;;
32427;SDS011;18882;50.952;4.366;2022-10-31T07:52:44;16.63;;;4.43;;
32427;SDS011;18882;50.952;4.366;2022-10-31T07:55:11;9.32;;;5.18;;
32427;SDS011;18882;50.952;4.366;2022-10-31T07:57:37;11.73;;;4.38;;
32427;SDS011;18882;50.952;4.366;2022-10-31T08:00:04;10.68;;;4.65;;
32427;SDS011;18882;50.952;4.366;2022-10-31T08:02:34;11.20;;;5.30;;
32427;SDS011;18882;50.952;4.366;2022-10-31T08:05:00;11.10;;;5.00;;
32427;SDS011;18882;50.952;4.366;2022-10-31T08:07:29;12.32;;;5.63;;
32427;SDS011;18882;50.952;4.366;2022-10-31T08:09:55;10.32;;;5.45;;
32427;SDS011;18882;50.952;4.366;2022-10-31T08:12:21;18.25;;;5.55;;
32427;SDS011;18882;50.952;4.366;2022-10-31T08:14:46;11.15;;;5.20;;
32427;SDS011;18882;50.952;4.366;2022-10-31T08:17:12;13.10;;;5.68;;
32427;SDS011;18882;50.952;4.366;2022-10-31T08:19:38;13.23;;;5.85;;
32427;SDS011;18882;50.952;4.366;2022-10-31T08:22:03;8.52;;;5.40;;
32427;SDS011;18882;50.952;4.366;2022-10-31T08:24:29;14.93;;;5.82;;
32427;SDS011;18882;50.952;4.366;2022-10-31T08:26:55;14.07;;;5.93;;
32427;SDS011;18882;50.952;4.366;2022-10-31T08:29:20;11.90;;;6.15;;
32427;SDS011;18882;50.952;4.366;2022-10-31T08:31:46;11.82;;;5.95;;
32427;SDS011;18882;50.952;4.366;2022-10-31T08:34:12;12.93;;;5.35;;
32427;SDS011;18882;50.952;4.366;2022-10-31T08:36:37;11.07;;;5.70;;
32427;SDS011;18882;50.952;4.366;2022-10-31T08:39:03;16.58;;;5.63;;
32427;SDS011;18882;50.952;4.366;2022-10-31T08:41:29;10.15;;;5.43;;
32427;SDS011;18882;50.952;4.366;2022-10-31T08:43:55;10.55;;;5.03;;
32427;SDS011;18882;50.952;4.366;2022-10-31T08:46:20;12.13;;;5.57;;
32427;SDS011;18882;50.952;4.366;2022-10-31T08:48:49;11.30;;;5.68;;
32427;SDS011;18882;50.952;4.366;2022-10-31T08:51:15;11.25;;;5.35;;
32427;SDS011;18882;50.952;4.366;2022-10-31T08:53:41;12.98;;;5.63;;
32427;SDS011;18882;50.952;4.366;2022-10-31T08:56:06;13.30;;;5.40;;
32427;SDS011;18882;50.952;4.366;2022-10-31T08:58:32;10.68;;;5.30;;
32427;SDS011;18882;50.952;4.366;2022-10-31T09:00:59;12.57;;;5.35;;
32427;SDS011;18882;50.952;4.366;2022-10-31T09:03:26;12.20;;;5.45;;
32427;SDS011;18882;50.952;4.366;2022-10-31T09:05:55;12.32;;;5.53;;
32427;SDS011;18882;50.952;4.366;2022-10-31T09:08:25;9.70;;;5.07;;
32427;SDS011;18882;50.952;4.366;2022-10-31T09:10:51;10.70;;;5.05;;
32427;SDS011;18882;50.952;4.366;2022-10-31T09:13:21;9.68;;;4.65;;
32427;SDS011;18882;50.952;4.366;2022-10-31T09:15:47;11.55;;;5.50;;
32427;SDS011;18882;50.952;4.366;2022-10-31T09:18:15;10.40;;;5.50;;
32427;SDS011;18882;50.952;4.366;2022-10-31T09:20:43;10.00;;;5.28;;
32427;SDS011;18882;50.952;4.366;2022-10-31T09:23:10;10.60;;;4.85;;
32427;SDS011;18882;50.952;4.366;2022-10-31T09:25:38;9.65;;;4.72;;
32427;SDS011;18882;50.952;4.366;2022-10-31T09:28:04;12.15;;;5.53;;
32427;SDS011;18882;50.952;4.366;2022-10-31T09:30:32;10.07;;;6.30;;
32427;SDS011;18882;50.952;4.366;2022-10-31T09:32:59;12.45;;;7.35;;
32427;SDS011;18882;50.952;4.366;2022-10-31T09:35:26;19.63;;;7.43;;
32427;SDS011;18882;50.952;4.366;2022-10-31T09:37:59;13.82;;;6.20;;
32427;SDS011;18882;50.952;4.366;2022-10-31T09:43:00;11.00;;;5.30;;
32427;SDS011;18882;50.952;4.366;2022-10-31T09:45:43;9.98;;;5.47;;
32427;SDS011;18882;50.952;4.366;2022-10-31T09:51:13;10.13;;;5.28;;
32427;SDS011;18882;50.952;4.366;2022-10-31T09:56:14;14.25;;;5.82;;
32427;SDS011;18882;50.952;4.366;2022-10-31T09:58:47;10.60;;;4.88;;
32427;SDS011;18882;50.952;4.366;2022-10-31T10:01:37;14.52;;;6.78;;
32427;SDS011;18882;50.952;4.366;2022-10-31T10:04:28;11.57;;;6.55;;
32427;SDS011;18882;50.952;4.366;2022-10-31T10:09:43;9.73;;;6.03;;
32427;SDS011;18882;50.952;4.366;2022-10-31T10:12:14;15.32;;;6.53;;
32427;SDS011;18882;50.952;4.366;2022-10-31T10:14:53;9.15;;;5.65;;
32427;SDS011;18882;50.952;4.366;2022-10-31T10:17:39;11.60;;;5.45;;
32427;SDS011;18882;50.952;4.366;2022-10-31T10:20:18;9.80;;;5.35;;
32427;SDS011;18882;50.952;4.366;2022-10-31T10:25:44;9.70;;;5.65;;
32427;SDS011;18882;50.952;4.366;2022-10-31T10:30:39;11.43;;;5.07;;
32427;SDS011;18882;50.952;4.366;2022-10-31T10:33:14;12.25;;;5.38;;
32427;SDS011;18882;50.952;4.366;2022-10-31T10:35:42;12.25;;;6.18;;
32427;SDS011;18882;50.952;4.366;2022-10-31T10:38:20;12.57;;;6.13;;
32427;SDS011;18882;50.952;4.366;2022-10-31T10:40:56;8.52;;;5.03;;
32427;SDS011;18882;50.952;4.366;2022-10-31T10:43:33;12.85;;;5.07;;
32427;SDS011;18882;50.952;4.366;2022-10-31T10:46:13;8.73;;;5.50;;
32427;SDS011;18882;50.952;4.366;2022-10-31T11:03:03;12.02;;;5.32;;
32427;SDS011;18882;50.952;4.366;2022-10-31T11:08:25;12.38;;;5.32;;
32427;SDS011;18882;50.952;4.366;2022-10-31T11:11:06;9.25;;;4.82;;
32427;SDS011;18882;50.952;4.366;2022-10-31T11:13:47;10.48;;;5.28;;
32427;SDS011;18882;50.952;4.366;2022-10-31T11:16:27;11.30;;;6.38;;
32427;SDS011;18882;50.952;4.366;2022-10-31T11:19:04;12.35;;;5.38;;
32427;SDS011;18882;50.952;4.366;2022-10-31T11:21:33;15.85;;;5.80;;
32427;SDS011;18882;50.952;4.366;2022-10-31T11:26:34;13.75;;;6.75;;
32427;SDS011;18882;50.952;4.366;2022-10-31T11:29:02;9.43;;;6.32;;
32427;SDS011;18882;50.952;4.366;2022-10-31T11:31:29;11.10;;;5.63;;
32427;SDS011;18882;50.952;4.366;2022-10-31T11:33:57;9.60;;;5.68;;
32427;SDS011;18882;50.952;4.366;2022-10-31T11:36:25;14.48;;;6.47;;
32427;SDS011;18882;50.952;4.366;2022-10-31T11:38:54;12.07;;;6.28;;
32427;SDS011;18882;50.952;4.366;2022-10-31T11:41:30;10.25;;;5.60;;
32427;SDS011;18882;50.952;4.366;2022-10-31T11:43:59;12.90;;;5.82;;
32427;SDS011;18882;50.952;4.366;2022-10-31T11:46:50;12.43;;;5.80;;
32427;SDS011;18882;50.952;4.366;2022-10-31T11:49:19;13.07;;;5.80;;
32427;SDS011;18882;50.952;4.366;2022-10-31T11:51:52;9.90;;;5.35;;
32427;SDS011;18882;50.952;4.366;2022-10-31T11:54:23;13.30;;;6.38;;
32427;SDS011;18882;50.952;4.366;2022-10-31T11:56:52;9.18;;;5.85;;
32427;SDS011;18882;50.952;4.366;2022-10-31T11:59:21;11.73;;;5.85;;
32427;SDS011;18882;50.952;4.366;2022-10-31T12:01:53;10.25;;;5.85;;
32427;SDS011;18882;50.952;4.366;2022-10-31T12:04:23;7.53;;;5.05;;
32427;SDS011;18882;50.952;4.366;2022-10-31T12:06:59;10.05;;;5.25;;
32427;SDS011;18882;50.952;4.366;2022-10-31T12:09:26;12.85;;;6.38;;
32427;SDS011;18882;50.952;4.366;2022-10-31T12:12:10;9.38;;;5.22;;
32427;SDS011;18882;50.952;4.366;2022-10-31T12:17:36;11.02;;;5.57;;
32427;SDS011;18882;50.952;4.366;2022-10-31T12:31:55;10.32;;;5.38;;
32427;SDS011;18882;50.952;4.366;2022-10-31T12:34:45;7.18;;;4.05;;
32427;SDS011;18882;50.952;4.366;2022-10-31T12:40:40;11.70;;;4.22;;
32427;SDS011;18882;50.952;4.366;2022-10-31T12:43:46;11.63;;;5.13;;
32427;SDS011;18882;50.952;4.366;2022-10-31T12:46:23;8.88;;;4.75;;
32427;SDS011;18882;50.952;4.366;2022-10-31T12:51:51;7.63;;;3.97;;
32427;SDS011;18882;50.952;4.366;2022-10-31T12:59:50;6.30;;;4.18;;
32427;SDS011;18882;50.952;4.366;2022-10-31T13:05:27;9.20;;;4.53;;
32427;SDS011;18882;50.952;4.366;2022-10-31T13:07:58;6.40;;;3.97;;
32427;SDS011;18882;50.952;4.366;2022-10-31T13:10:34;11.98;;;4.05;;
32427;SDS011;18882;50.952;4.366;2022-10-31T13:13:11;5.53;;;3.55;;
32427;SDS011;18882;50.952;4.366;2022-10-31T13:15:48;4.88;;;3.38;;
32427;SDS011;18882;50.952;4.366;2022-10-31T13:18:39;9.38;;;3.78;;
32427;SDS011;18882;50.952;4.366;2022-10-31T13:21:10;7.43;;;3.35;;
32427;SDS011;18882;50.952;4.366;2022-10-31T13:23:42;6.32;;;3.47;;
32427;SDS011;18882;50.952;4.366;2022-10-31T13:26:10;8.00;;;3.83;;
32427;SDS011;18882;50.952;4.366;2022-10-31T13:34:04;6.55;;;3.80;;
32427;SDS011;18882;50.952;4.366;2022-10-31T13:36:50;5.72;;;3.40;;
32427;SDS011;18882;50.952;4.366;2022-10-31T13:39:32;9.38;;;3.75;;
32427;SDS011;18882;50.952;4.366;2022-10-31T13:45:14;3.50;;;2.83;;
32427;SDS011;18882;50.952;4.366;2022-10-31T13:50:39;7.40;;;3.08;;
32427;SDS011;18882;50.952;4.366;2022-10-31T13:55:44;6.05;;;3.03;;
32427;SDS011;18882;50.952;4.366;2022-10-31T14:00:46;6.43;;;3.15;;
32427;SDS011;18882;50.952;4.366;2022-10-31T14:03:38;6.90;;;3.70;;
32427;SDS011;18882;50.952;4.366;2022-10-31T14:06:06;5.20;;;3.20;;
32427;SDS011;18882;50.952;4.366;2022-10-31T14:08:34;6.65;;;3.40;;
32427;SDS011;18882;50.952;4.366;2022-10-31T14:11:06;14.13;;;3.17;;
32427;SDS011;18882;50.952;4.366;2022-10-31T14:13:35;7.15;;;3.35;;
32427;SDS011;18882;50.952;4.366;2022-10-31T14:16:22;3.03;;;2.38;;
32427;SDS011;18882;50.952;4.366;2022-10-31T14:18:51;4.10;;;2.65;;
32427;SDS011;18882;50.952;4.366;2022-10-31T14:21:46;5.47;;;3.00;;
32427;SDS011;18882;50.952;4.366;2022-10-31T14:24:13;7.32;;;3.75;;
32427;SDS011;18882;50.952;4.366;2022-10-31T14:27:01;6.85;;;2.95;;
32427;SDS011;18882;50.952;4.366;2022-10-31T14:50:52;5.20;;;2.97;;
32427;SDS011;18882;50.952;4.366;2022-10-31T14:55:57;5.35;;;2.85;;
32427;SDS011;18882;50.952;4.366;2022-10-31T14:58:25;7.72;;;2.53;;
32427;SDS011;18882;50.952;4.366;2022-10-31T15:01:01;5.03;;;2.45;;
32427;SDS011;18882;50.952;4.366;2022-10-31T15:03:33;4.30;;;2.22;;
32427;SDS011;18882;50.952;4.366;2022-10-31T15:06:13;9.93;;;3.28;;
32427;SDS011;18882;50.952;4.366;2022-10-31T15:08:46;3.95;;;2.42;;
32427;SDS011;18882;50.952;4.366;2022-10-31T15:11:25;5.32;;;2.42;;
32427;SDS011;18882;50.952;4.366;2022-10-31T15:13:56;6.57;;;2.42;;
32427;SDS011;18882;50.952;4.366;2022-10-31T15:16:24;3.78;;;2.53;;
32427;SDS011;18882;50.952;4.366;2022-10-31T15:21:30;3.70;;;2.65;;
32427;SDS011;18882;50.952;4.366;2022-10-31T15:23:58;5.47;;;2.17;;
32427;SDS011;18882;50.952;4.366;2022-10-31T15:26:40;3.97;;;2.85;;
32427;SDS011;18882;50.952;4.366;2022-10-31T15:29:12;5.65;;;2.25;;
32427;SDS011;18882;50.952;4.366;2022-10-31T15:31:58;9.85;;;2.80;;
32427;SDS011;18882;50.952;4.366;2022-10-31T15:37:02;7.72;;;3.45;;
32427;SDS011;18882;50.952;4.366;2022-10-31T15:39:28;4.82;;;3.65;;
32427;SDS011;18882;50.952;4.366;2022-10-31T15:41:55;5.45;;;2.65;;
32427;SDS011;18882;50.952;4.366;2022-10-31T15:44:23;5.13;;;2.70;;
32427;SDS011;18882;50.952;4.366;2022-10-31T15:46:57;10.95;;;3.35;;
32427;SDS011;18882;50.952;4.366;2022-10-31T15:52:15;8.32;;;2.92;;
32427;SDS011;18882;50.952;4.366;2022-10-31T15:54:51;8.75;;;3.60;;
32427;SDS011;18882;50.952;4.366;2022-10-31T15:57:20;7.13;;;3.63;;
32427;SDS011;18882;50.952;4.366;2022-10-31T15:59:51;10.68;;;3.33;;
32427;SDS011;18882;50.952;4.366;2022-10-31T16:02:18;10.63;;;3.47;;
32427;SDS011;18882;50.952;4.366;2022-10-31T16:04:50;8.57;;;3.78;;
32427;SDS011;18882;50.952;4.366;2022-10-31T16:07:19;6.47;;;3.67;;
32427;SDS011;18882;50.952;4.366;2022-10-31T16:09:48;12.32;;;5.97;;
32427;SDS011;18882;50.952;4.366;2022-10-31T16:12:17;12.95;;;5.45;;
32427;SDS011;18882;50.952;4.366;2022-10-31T16:14:43;8.52;;;4.85;;
32427;SDS011;18882;50.952;4.366;2022-10-31T16:17:13;8.57;;;3.17;;
32427;SDS011;18882;50.952;4.366;2022-10-31T16:22:12;16.45;;;3.60;;
32427;SDS011;18882;50.952;4.366;2022-10-31T16:27:22;8.07;;;4.32;;
32427;SDS011;18882;50.952;4.366;2022-10-31T16:29:53;10.43;;;5.15;;
32427;SDS011;18882;50.952;4.366;2022-10-31T16:37:57;7.22;;;4.28;;
32427;SDS011;18882;50.952;4.366;2022-10-31T16:40:23;13.57;;;5.10;;
32427;SDS011;18882;50.952;4.366;2022-10-31T16:42:49;6.68;;;3.75;;
32427;SDS011;18882;50.952;4.366;2022-10-31T16:45:16;11.80;;;4.05;;
32427;SDS011;18882;50.952;4.366;2022-10-31T16:47:44;9.27;;;4.45;;
32427;SDS011;18882;50.952;4.366;2022-10-31T16:50:14;10.15;;;5.47;;
32427;SDS011;18882;50.952;4.366;2022-10-31T16:52:50;14.02;;;5.10;;
32427;SDS011;18882;50.952;4.366;2022-10-31T16:55:17;7.72;;;3.53;;
32427;SDS011;18882;50.952;4.366;2022-10-31T16:57:54;14.18;;;6.00;;
32427;SDS011;18882;50.952;4.366;2022-10-31T17:00:22;13.75;;;6.10;;
32427;SDS011;18882;50.952;4.366;2022-10-31T17:02:53;11.32;;;6.30;;
32427;SDS011;18882;50.952;4.366;2022-10-31T17:05:21;13.93;;;5.72;;
32427;SDS011;18882;50.952;4.366;2022-10-31T17:07:54;11.43;;;5.63;;
32427;SDS011;18882;50.952;4.366;2022-10-31T17:10:22;13.30;;;6.55;;
32427;SDS011;18882;50.952;4.366;2022-10-31T17:12:49;10.10;;;6.28;;
32427;SDS011;18882;50.952;4.366;2022-10-31T17:17:42;8.27;;;4.72;;
32427;SDS011;18882;50.952;4.366;2022-10-31T17:20:12;6.32;;;4.18;;
32427;SDS011;18882;50.952;4.366;2022-10-31T17:22:43;8.15;;;4.53;;
32427;SDS011;18882;50.952;4.366;2022-10-31T17:25:11;12.55;;;4.82;;
32427;SDS011;18882;50.952;4.366;2022-10-31T17:27:43;9.07;;;4.85;;